Time;durP1;ratioP1;P1;durP2;ratioP2;P2;SDS_P1;SDS_P2;PMS_P1;PMS_P2;Temp;Humidity;BMP_temperature;BMP_pressure;BME280_temperature;BME280_humidity;BME280_pressure;Samples;Min_cycle;Max_cycle;Signal;HPM_P1;HPM_P2
2021/10/15 00:00:08;;;;;;;28.85;9.35;;;;;;;11.35;90.10;98912.69;5103528;28;20035;-71
2021/10/15 00:02:34;;;;;;;26.05;8.02;;;;;;;11.40;90.06;98907.31;5103374;28;20020;-70
2021/10/15 00:04:59;;;;;;;21.23;6.32;;;;;;;11.39;90.13;98893.47;5103302;28;20060;-70
2021/10/15 00:07:24;;;;;;;13.93;4.82;;;;;;;11.39;89.94;98898.66;5103275;28;20020;-70
2021/10/15 00:09:50;;;;;;;21.55;6.78;;;;;;;11.41;90.08;98890.81;5084959;28;20024;-71
2021/10/15 00:12:15;;;;;;;24.52;8.57;;;;;;;11.44;89.87;98890.72;5106574;28;20016;-71
2021/10/15 00:14:41;;;;;;;22.80;8.15;;;;;;;11.44;89.72;98869.91;5106857;28;20055;-71
2021/10/15 00:17:06;;;;;;;21.65;7.00;;;;;;;11.48;89.66;98861.13;5106930;28;20031;-71
2021/10/15 00:19:31;;;;;;;19.98;7.70;;;;;;;11.48;89.84;98863.72;5107176;28;20016;-70
2021/10/15 00:21:57;;;;;;;18.65;7.68;;;;;;;11.45;89.70;98860.38;5088362;28;20408;-70
2021/10/15 00:24:22;;;;;;;25.58;6.63;;;;;;;11.40;89.71;98852.75;5107599;28;20027;-73
2021/10/15 00:26:47;;;;;;;6.13;4.13;;;;;;;11.38;89.87;98855.41;5107729;28;20039;-73
2021/10/15 00:29:13;;;;;;;24.40;7.35;;;;;;;11.32;90.22;98845.25;5107255;28;20016;-73
2021/10/15 00:31:38;;;;;;;21.67;7.00;;;;;;;11.22;90.43;98843.88;5106873;28;20012;-73
2021/10/15 00:34:03;;;;;;;8.38;3.92;;;;;;;11.23;90.63;98832.59;5106700;28;20460;-71
2021/10/15 00:36:29;;;;;;;20.60;6.53;;;;;;;11.20;90.89;98830.13;5106415;28;20087;-73
2021/10/15 00:38:54;;;;;;;12.85;5.47;;;;;;;11.18;91.16;98819.78;5106639;28;20047;-70
2021/10/15 00:41:19;;;;;;;14.82;4.53;;;;;;;11.16;91.48;98826.78;5106269;28;20051;-68
2021/10/15 00:43:59;;;;;;;19.67;6.90;;;;;;;11.12;91.53;98807.00;5106362;28;20024;-68
2021/10/15 00:46:25;;;;;;;13.85;4.53;;;;;;;11.12;92.08;98814.78;5106448;28;20023;-69
2021/10/15 00:48:51;;;;;;;15.98;5.18;;;;;;;11.11;92.52;98846.88;5106584;28;20044;-68
2021/10/15 00:51:16;;;;;;;3.15;1.98;;;;;;;11.03;91.29;98858.38;5105934;28;20065;-69
2021/10/15 00:53:42;;;;;;;6.43;1.70;;;;;;;10.76;90.37;98845.47;5106439;28;20020;-69
2021/10/15 00:56:07;;;;;;;5.03;2.53;;;;;;;10.49;89.85;98832.53;5106320;28;20104;-70
2021/10/15 00:58:32;;;;;;;8.63;1.45;;;;;;;10.27;90.02;98824.56;5106349;28;20031;-71
2021/10/15 01:00:58;;;;;;;6.55;1.15;;;;;;;10.06;90.52;98828.69;5088277;28;20024;-71
2021/10/15 01:03:23;;;;;;;7.10;1.20;;;;;;;9.91;91.00;98829.13;5105937;28;20028;-70
2021/10/15 01:05:48;;;;;;;6.35;1.52;;;;;;;9.88;91.32;98810.22;5106010;28;20384;-70
2021/10/15 01:08:14;;;;;;;12.05;2.20;;;;;;;9.86;91.54;98805.09;5105723;28;20085;-70
2021/10/15 01:10:39;;;;;;;15.85;2.70;;;;;;;9.84;92.20;98790.50;5087555;28;20020;-70
2021/10/15 01:13:05;;;;;;;15.88;2.78;;;;;;;9.89;92.81;98809.31;5105687;28;20024;-70
2021/10/15 01:15:30;;;;;;;10.20;2.97;;;;;;;9.96;93.04;98805.66;5105725;28;20044;-69
2021/10/15 01:17:56;;;;;;;23.33;2.83;;;;;;;10.00;93.16;98796.06;5105713;28;20023;-69
2021/10/15 01:20:21;;;;;;;17.02;3.10;;;;;;;10.10;93.30;98797.44;5105843;28;20391;-69
2021/10/15 01:22:46;;;;;;;16.65;3.85;;;;;;;10.17;93.28;98792.91;5105175;28;20043;-70
2021/10/15 01:25:12;;;;;;;20.42;2.90;;;;;;;10.20;93.48;98797.13;5105812;28;20030;-69
2021/10/15 01:27:37;;;;;;;16.58;2.08;;;;;;;10.23;93.59;98794.44;5105733;28;20034;-70
2021/10/15 01:30:03;;;;;;;11.20;2.30;;;;;;;10.28;93.77;98797.72;5105857;28;20024;-70
2021/10/15 01:32:28;;;;;;;15.40;2.10;;;;;;;10.29;93.92;98794.22;5105357;28;20028;-70
2021/10/15 01:34:53;;;;;;;10.65;2.42;;;;;;;10.23;94.02;98812.59;5105527;28;20031;-70
2021/10/15 01:37:19;;;;;;;12.93;2.22;;;;;;;10.26;93.57;98796.94;5105150;28;20024;-69
2021/10/15 01:39:44;;;;;;;9.00;1.67;;;;;;;10.16;93.32;98794.63;5105470;28;20091;-69
2021/10/15 01:42:53;;;;;;;13.32;2.17;;;;;;;10.17;93.03;98798.91;5105083;28;20547;-69
2021/10/15 01:44:55;;;;;;;15.75;1.58;;;;;;;10.10;92.74;98793.97;5104941;28;20035;-69
2021/10/15 01:47:20;;;;;;;18.65;3.22;;;;;;;10.01;92.52;98792.56;5086821;28;20058;-69
2021/10/15 01:49:45;;;;;;;15.52;2.20;;;;;;;9.95;91.84;98797.94;5104976;28;20028;-69
2021/10/15 01:52:11;;;;;;;15.40;2.88;;;;;;;9.84;91.05;98791.34;5104923;28;20482;-67
2021/10/15 01:54:36;;;;;;;12.15;2.53;;;;;;;9.70;90.92;98784.00;5105115;28;20054;-68
2021/10/15 01:57:02;;;;;;;9.15;1.80;;;;;;;9.63;90.85;98791.09;5105328;28;20047;-69
2021/10/15 01:59:27;;;;;;;21.63;2.05;;;;;;;9.53;91.36;98781.94;5105087;28;20141;-69
2021/10/15 02:01:53;;;;;;;12.55;2.38;;;;;;;9.49;91.91;98788.09;5104671;28;20103;-69
2021/10/15 02:04:18;;;;;;;19.23;2.95;;;;;;;9.49;92.10;98788.94;5104807;28;20024;-70
2021/10/15 02:06:43;;;;;;;19.10;2.55;;;;;;;9.51;92.37;98786.28;5104584;28;20034;-69
2021/10/15 02:09:09;;;;;;;17.33;2.80;;;;;;;9.54;92.34;98791.38;5104743;28;20027;-70
2021/10/15 02:11:34;;;;;;;17.17;2.65;;;;;;;9.55;92.00;98786.16;5104514;28;20028;-71
2021/10/15 02:13:59;;;;;;;12.52;2.13;;;;;;;9.51;91.49;98791.47;5104662;28;20024;-69
2021/10/15 02:16:25;;;;;;;22.00;2.47;;;;;;;9.48;91.66;98786.38;5104575;28;20023;-68
2021/10/15 02:18:50;;;;;;;21.00;2.80;;;;;;;9.48;91.28;98799.34;5086241;28;20423;-68
2021/10/15 02:21:15;;;;;;;14.27;2.47;;;;;;;9.52;91.22;98786.25;5104663;28;20020;-69
2021/10/15 02:23:41;;;;;;;21.15;2.75;;;;;;;9.46;90.62;98788.16;5085869;28;20092;-69
2021/10/15 02:26:06;;;;;;;20.40;3.00;;;;;;;9.47;90.00;98782.13;5104703;28;20097;-68
2021/10/15 02:28:32;;;;;;;13.27;2.85;;;;;;;9.44;90.08;98762.31;5104250;28;20031;-68
2021/10/15 02:30:57;;;;;;;18.65;3.47;;;;;;;9.46;89.67;98764.84;5104161;28;20055;-67
2021/10/15 02:33:22;;;;;;;13.27;2.80;;;;;;;9.46;89.48;98770.03;5103480;28;20035;-66
2021/10/15 02:35:48;;;;;;;16.73;2.90;;;;;;;9.46;88.94;98780.41;5104028;28;20024;-67
2021/10/15 02:38:13;;;;;;;18.23;2.92;;;;;;;9.50;88.62;98797.56;5103995;28;20020;-68
2021/10/15 02:40:38;;;;;;;21.25;3.15;;;;;;;9.56;88.52;98781.84;5103915;28;20020;-67
2021/10/15 02:43:04;;;;;;;20.13;2.75;;;;;;;9.58;89.12;98767.09;5103672;28;20049;-69
2021/10/15 02:45:30;;;;;;;30.13;3.72;;;;;;;9.59;88.51;98778.28;5103908;28;20028;-68
2021/10/15 02:47:55;;;;;;;15.20;3.78;;;;;;;9.54;88.31;98778.44;5103927;28;20048;-70
2021/10/15 02:50:21;;;;;;;20.55;3.33;;;;;;;9.66;88.64;98767.69;5103715;28;20035;-68
2021/10/15 02:52:46;;;;;;;17.75;3.22;;;;;;;9.65;87.83;98765.13;5103867;28;20026;-68
2021/10/15 02:55:11;;;;;;;17.35;2.67;;;;;;;9.63;87.43;98764.38;5103932;28;20050;-69
2021/10/15 02:57:37;;;;;;;17.50;2.70;;;;;;;9.55;87.25;98760.25;5103625;28;20020;-69
2021/10/15 03:00:03;;;;;;;11.52;3.65;;;;;;;9.66;87.42;98779.81;5103872;28;20036;-70
2021/10/15 03:02:29;;;;;;;26.95;4.35;;;;;;;9.68;87.03;98765.03;5103519;28;20096;-69
2021/10/15 03:04:54;;;;;;;15.52;2.40;;;;;;;9.71;87.07;98769.31;5103692;28;20028;-69
2021/10/15 03:07:19;;;;;;;16.27;2.28;;;;;;;9.72;85.89;98771.00;5103436;28;20030;-69
2021/10/15 03:09:48;;;;;;;17.17;3.00;;;;;;;9.73;85.84;98765.75;5103567;28;20518;-69
2021/10/15 03:12:13;;;;;;;25.23;3.55;;;;;;;9.73;85.35;98775.28;5103422;28;20024;-69
2021/10/15 03:14:39;;;;;;;15.85;2.63;;;;;;;9.77;85.58;98758.75;5103464;28;20471;-70
2021/10/15 03:17:04;;;;;;;25.02;3.13;;;;;;;9.79;85.39;98744.81;5103667;28;20028;-70
2021/10/15 03:19:29;;;;;;;17.73;2.40;;;;;;;9.84;85.39;98767.19;5103442;28;20027;-69
2021/10/15 03:21:55;;;;;;;18.77;3.45;;;;;;;9.87;85.19;98769.66;5103196;28;20101;-70
2021/10/15 03:24:20;;;;;;;21.60;3.47;;;;;;;9.86;85.57;98763.63;5103287;28;20028;-70
2021/10/15 03:26:45;;;;;;;14.60;2.83;;;;;;;9.87;84.55;98775.69;5103590;28;20023;-71
2021/10/15 03:29:11;;;;;;;16.40;2.03;;;;;;;9.86;83.96;98763.63;5103521;28;20028;-73
2021/10/15 03:31:36;;;;;;;11.73;2.90;;;;;;;9.87;83.21;98765.31;5103222;28;20135;-72
2021/10/15 03:34:02;;;;;;;10.90;2.33;;;;;;;9.86;82.06;98767.94;5103587;28;20040;-71
2021/10/15 03:36:27;;;;;;;15.68;2.10;;;;;;;9.81;81.32;98770.69;5103496;28;20055;-72
2021/10/15 03:38:53;;;;;;;20.60;2.65;;;;;;;9.81;81.71;98775.06;5103559;28;20024;-71
2021/10/15 03:41:19;;;;;;;14.60;2.53;;;;;;;9.77;81.34;98769.97;5103378;28;20024;-71
2021/10/15 03:43:44;;;;;;;13.90;2.58;;;;;;;9.77;81.05;98769.09;5103206;28;20040;-71
2021/10/15 03:46:09;;;;;;;12.38;2.78;;;;;;;9.73;81.13;98768.34;5087023;28;20024;-71
2021/10/15 03:48:35;;;;;;;13.57;2.72;;;;;;;9.77;81.62;98769.09;5107536;28;20027;-71
2021/10/15 03:51:00;;;;;;;8.75;1.85;;;;;;;9.72;81.38;98777.03;5123078;28;20102;-71
2021/10/15 03:53:25;;;;;;;30.30;2.90;;;;;;;9.83;80.51;98784.47;5107039;28;20107;-70
2021/10/15 03:55:51;;;;;;;13.77;2.10;;;;;;;9.75;80.76;98791.63;5107316;28;20028;-70
2021/10/15 03:58:16;;;;;;;14.98;2.65;;;;;;;9.74;80.60;98784.75;5107186;28;20024;-70
2021/10/15 04:00:41;;;;;;;8.20;1.77;;;;;;;9.72;80.55;98778.75;5107094;28;20027;-70
2021/10/15 04:03:07;;;;;;;11.82;2.03;;;;;;;9.69;80.63;98782.31;5106993;28;20111;-70
2021/10/15 04:05:32;;;;;;;9.57;1.65;;;;;;;9.74;80.16;98764.03;5107166;28;20030;-70
2021/10/15 04:07:58;;;;;;;10.10;2.08;;;;;;;9.72;80.19;98750.25;5106799;28;20379;-70
2021/10/15 04:10:23;;;;;;;9.85;2.55;;;;;;;9.72;79.63;98758.03;5106827;28;20016;-68
2021/10/15 04:12:48;;;;;;;17.13;2.72;;;;;;;9.70;79.60;98765.84;5106636;28;20020;-69
2021/10/15 04:15:14;;;;;;;14.30;2.30;;;;;;;9.67;79.59;98766.81;5106704;28;20116;-69
2021/10/15 04:17:39;;;;;;;3.97;1.75;;;;;;;9.77;79.52;98758.75;5106787;28;20069;-68
2021/10/15 04:20:07;;;;;;;13.38;2.35;;;;;;;9.71;79.94;98754.63;5106702;28;20030;-68
2021/10/15 04:22:32;;;;;;;19.88;3.22;;;;;;;9.76;78.73;98741.50;5106211;28;20066;-69
2021/10/15 04:25:01;;;;;;;21.02;2.42;;;;;;;9.73;79.23;98749.38;5106567;28;20028;-70
2021/10/15 04:27:26;;;;;;;11.85;1.85;;;;;;;9.74;79.73;98753.66;5122335;28;20020;-68
2021/10/15 04:29:52;;;;;;;12.55;2.88;;;;;;;9.78;79.62;98744.88;5122147;28;20110;-69
2021/10/15 04:32:17;;;;;;;14.73;2.53;;;;;;;9.80;79.80;98743.09;5106257;28;20057;-69
2021/10/15 04:34:42;;;;;;;17.77;2.97;;;;;;;9.86;79.74;98744.63;5106523;28;20024;-69
2021/10/15 04:37:08;;;;;;;18.30;3.05;;;;;;;9.79;79.99;98741.41;5087828;28;20464;-68
2021/10/15 04:39:33;;;;;;;14.75;2.47;;;;;;;9.84;79.73;98755.03;5106268;28;20023;-69
2021/10/15 04:41:59;;;;;;;15.27;3.63;;;;;;;9.85;79.86;98736.03;5106208;28;20016;-68
2021/10/15 04:44:24;;;;;;;16.95;3.75;;;;;;;10.08;78.40;98743.94;5106302;28;20032;-69
2021/10/15 04:46:50;;;;;;;19.70;3.38;;;;;;;10.01;78.87;98756.25;5106315;28;20016;-70
2021/10/15 04:49:15;;;;;;;22.98;4.80;;;;;;;9.91;78.97;98740.16;5106453;28;20024;-70
2021/10/15 04:51:40;;;;;;;17.88;2.63;;;;;;;9.90;79.10;98734.09;5106187;28;20078;-70
2021/10/15 04:54:06;;;;;;;11.75;3.03;;;;;;;9.93;79.00;98738.38;5106285;28;20031;-66
2021/10/15 04:56:31;;;;;;;15.10;2.90;;;;;;;9.93;79.49;98738.38;5105479;28;20020;-66
2021/10/15 04:58:57;;;;;;;18.15;2.80;;;;;;;9.86;79.40;98714.38;5106039;28;20035;-65
2021/10/15 05:01:22;;;;;;;14.65;2.72;;;;;;;9.91;80.14;98727.19;5106110;28;20047;-72
2021/10/15 05:03:48;;;;;;;22.45;3.22;;;;;;;9.90;80.27;98734.09;5105935;28;20020;-70
2021/10/15 05:06:13;;;;;;;18.38;3.70;;;;;;;9.91;80.47;98728.03;5105763;28;20104;-72
2021/10/15 05:08:44;;;;;;;14.93;2.80;;;;;;;9.89;80.31;98722.06;5105594;28;20084;-69
2021/10/15 05:11:10;;;;;;;22.23;3.33;;;;;;;9.94;80.27;98713.25;5105952;28;20024;-68
2021/10/15 05:13:36;;;;;;;18.23;2.55;;;;;;;9.96;80.03;98719.25;5105654;28;20035;-69
2021/10/15 05:16:01;;;;;;;16.48;2.67;;;;;;;10.04;79.61;98722.44;5105713;28;20503;-67
2021/10/15 05:18:27;;;;;;;15.07;2.25;;;;;;;10.00;79.63;98719.09;5105649;28;20016;-69
2021/10/15 05:20:52;;;;;;;17.23;3.65;;;;;;;10.08;79.78;98715.41;5105553;28;20038;-69
2021/10/15 05:23:17;;;;;;;18.38;2.35;;;;;;;10.03;79.58;98720.75;5105108;28;20132;-70
2021/10/15 05:25:43;;;;;;;7.55;1.98;;;;;;;10.04;79.59;98712.06;5105587;28;20028;-69
2021/10/15 05:28:08;;;;;;;10.35;2.35;;;;;;;10.04;78.92;98715.53;5121062;28;20024;-69
2021/10/15 05:30:33;;;;;;;9.10;1.65;;;;;;;10.09;78.23;98720.56;5105403;28;20031;-68
2021/10/15 05:32:59;;;;;;;12.52;2.40;;;;;;;10.02;78.79;98711.28;5105477;28;20112;-68
2021/10/15 05:35:24;;;;;;;5.53;1.50;;;;;;;10.11;78.21;98723.91;5105279;28;20034;-68
2021/10/15 05:37:50;;;;;;;8.05;2.20;;;;;;;10.12;77.79;98719.59;5104880;28;20024;-69
2021/10/15 05:40:15;;;;;;;12.75;1.73;;;;;;;10.06;78.03;98730.19;5105135;28;20124;-69
2021/10/15 05:42:45;;;;;;;12.13;1.60;;;;;;;10.17;77.28;98726.31;5104861;28;20027;-69
2021/10/15 05:45:10;;;;;;;9.35;1.58;;;;;;;10.10;77.51;98732.59;5120645;28;20073;-69
2021/10/15 05:47:36;;;;;;;12.80;1.92;;;;;;;10.05;77.20;98716.34;5105126;28;20020;-67
2021/10/15 05:50:02;;;;;;;14.55;1.98;;;;;;;10.15;76.93;98722.94;5105059;28;20024;-69
2021/10/15 05:52:34;;;;;;;11.52;1.92;;;;;;;10.13;76.94;98736.84;5104861;28;20432;-70
2021/10/15 06:00:12;;;;;;;9.18;1.60;;;;;;;10.19;76.52;98741.00;5062751;28;20036;-68
2021/10/15 06:02:44;;;;;;;13.25;1.73;;;;;;;10.16;76.34;98724.63;5104439;28;20412;-68
2021/10/15 06:05:51;;;;;;;8.85;1.42;;;;;;;10.20;75.51;98729.69;5104736;28;20024;-68
2021/10/15 06:16:14;;;;;;;13.23;2.03;;;;;;;10.18;74.95;98737.53;5104794;28;20089;-69
2021/10/15 06:18:41;;;;;;;5.97;1.20;;;;;;;10.21;75.02;98752.16;5103867;28;20028;-69
2021/10/15 06:21:07;;;;;;;12.32;2.03;;;;;;;10.15;75.64;98754.06;5104310;28;20032;-69
2021/10/15 06:23:33;;;;;;;11.38;1.55;;;;;;;10.21;75.10;98757.34;5103910;28;20499;-69
2021/10/15 06:25:59;;;;;;;5.63;1.42;;;;;;;10.24;74.09;98752.06;5104386;28;20027;-69
2021/10/15 06:28:25;;;;;;;11.15;1.83;;;;;;;10.30;74.48;98762.22;5104490;28;20024;-70
2021/10/15 06:30:50;;;;;;;8.70;1.65;;;;;;;10.33;74.71;98763.84;5104046;28;20028;-70
2021/10/15 06:33:16;;;;;;;9.32;1.20;;;;;;;10.31;74.18;98753.53;5104046;28;20486;-69
2021/10/15 06:35:41;;;;;;;11.38;2.08;;;;;;;10.34;74.26;98773.31;5104270;28;20027;-68
2021/10/15 06:38:07;;;;;;;6.65;1.35;;;;;;;10.37;74.43;98779.25;5103923;28;20023;-69
2021/10/15 06:40:34;;;;;;;10.20;3.17;;;;;;;10.41;74.38;98788.63;5104155;28;20058;-68
2021/10/15 06:43:03;;;;;;;5.47;1.40;;;;;;;10.48;73.73;98784.13;5103754;28;20020;-67
2021/10/15 06:45:28;;;;;;;8.60;1.35;;;;;;;10.48;73.92;98786.72;5104092;28;20042;-70
2021/10/15 06:47:53;;;;;;;9.20;1.33;;;;;;;10.52;73.85;98788.31;5104368;28;20072;-71
2021/10/15 06:50:19;;;;;;;8.80;1.73;;;;;;;10.58;73.58;98789.84;5104062;28;20367;-70
2021/10/15 06:52:47;;;;;;;8.70;1.10;;;;;;;10.56;73.30;98789.03;5103662;28;20087;-68
2021/10/15 06:55:17;;;;;;;9.30;1.70;;;;;;;10.59;73.59;98793.28;5104063;28;20051;-69
2021/10/15 06:57:43;;;;;;;12.57;2.60;;;;;;;10.61;73.67;98807.91;5103984;28;20020;-67
2021/10/15 07:00:09;;;;;;;7.22;1.40;;;;;;;10.63;73.03;98800.91;5104014;28;20044;-70
2021/10/15 07:02:35;;;;;;;4.95;1.30;;;;;;;10.59;73.17;98808.88;5103544;28;20415;-68
2021/10/15 07:05:00;;;;;;;7.30;1.75;;;;;;;10.55;73.27;98813.31;5085645;28;20028;-68
2021/10/15 07:07:26;;;;;;;8.68;1.70;;;;;;;10.58;73.35;98820.97;5103349;28;20149;-68
2021/10/15 07:09:51;;;;;;;5.90;1.20;;;;;;;10.89;73.77;98819.06;5103737;28;20051;-69
2021/10/15 07:12:16;;;;;;;9.63;1.38;;;;;;;11.45;73.18;98821.41;5103736;28;20035;-67
2021/10/15 07:14:41;;;;;;;5.97;1.17;;;;;;;12.08;72.18;98831.13;5103545;28;20043;-68
2021/10/15 07:17:07;;;;;;;8.82;1.40;;;;;;;12.66;71.91;98827.94;5103675;28;20028;-68
2021/10/15 07:19:32;;;;;;;7.68;1.73;;;;;;;13.24;71.58;98836.75;5103335;28;20079;-68
2021/10/15 07:21:57;;;;;;;8.38;1.75;;;;;;;13.90;70.29;98833.81;5103075;28;20040;-68
2021/10/15 07:24:23;;;;;;;5.75;1.80;;;;;;;14.50;68.72;98853.53;5103533;28;20032;-68
2021/10/15 07:26:48;;;;;;;6.97;1.30;;;;;;;14.86;65.85;98834.31;5103411;28;20028;-68
2021/10/15 07:29:13;;;;;;;3.10;0.80;;;;;;;15.28;65.76;98840.91;5103269;28;20028;-68
2021/10/15 07:31:39;;;;;;;7.05;1.17;;;;;;;15.59;63.12;98841.88;5103505;28;20035;-67
2021/10/15 07:34:05;;;;;;;7.28;1.25;;;;;;;15.63;61.33;98845.16;5103133;28;20028;-67
2021/10/15 07:36:31;;;;;;;5.07;1.08;;;;;;;15.46;60.46;98860.00;5103358;28;20020;-68
2021/10/15 07:39:00;;;;;;;4.63;1.25;;;;;;;15.11;60.10;98872.25;5103189;28;20038;-68
2021/10/15 07:41:25;;;;;;;8.57;1.80;;;;;;;14.76;60.76;98861.78;5103320;28;20084;-68
2021/10/15 07:43:51;;;;;;;8.95;1.25;;;;;;;14.90;61.04;98868.13;5103148;28;20079;-68
2021/10/15 07:46:19;;;;;;;6.95;0.98;;;;;;;15.27;60.09;98876.66;5103298;28;20036;-67
2021/10/15 07:48:48;;;;;;;7.40;1.00;;;;;;;15.86;58.34;98872.69;5085102;28;20652;-67
2021/10/15 07:51:14;;;;;;;3.25;0.95;;;;;;;16.48;56.02;98871.03;5103112;28;20049;-68
2021/10/15 07:53:39;;;;;;;7.90;1.30;;;;;;;16.98;54.37;98860.28;5102913;28;20050;-67
2021/10/15 07:56:05;;;;;;;5.47;0.88;;;;;;;17.65;52.49;98873.78;5103099;28;20024;-67
2021/10/15 07:58:30;;;;;;;7.85;1.17;;;;;;;18.11;50.22;98884.91;5103276;28;20032;-67
2021/10/15 08:00:56;;;;;;;7.38;1.20;;;;;;;18.50;49.40;98888.53;5103216;28;20069;-68
2021/10/15 08:03:21;;;;;;;3.40;0.70;;;;;;;18.81;48.31;98893.53;5103025;28;20020;-69
2021/10/15 08:05:49;;;;;;;5.63;1.20;;;;;;;19.31;48.15;98892.84;5103294;28;20051;-68
2021/10/15 08:08:14;;;;;;;5.05;1.20;;;;;;;19.91;46.64;98900.06;5102946;28;20027;-68
2021/10/15 08:10:40;;;;;;;3.75;1.10;;;;;;;20.29;45.07;98914.94;5103202;28;20130;-68
2021/10/15 08:13:05;;;;;;;8.27;1.52;;;;;;;20.59;43.73;98918.03;5102934;28;20034;-67
2021/10/15 08:15:30;;;;;;;2.00;0.60;;;;;;;20.80;43.16;98907.69;5103081;28;20513;-67
2021/10/15 08:17:56;;;;;;;5.15;0.65;;;;;;;21.11;40.09;98922.16;5102942;28;20027;-68
2021/10/15 08:20:22;;;;;;;5.53;1.05;;;;;;;20.89;40.32;98897.41;5103281;28;20024;-67
2021/10/15 08:22:52;;;;;;;3.60;1.00;;;;;;;20.83;39.47;98911.06;5102564;28;20755;-68
2021/10/15 08:25:17;;;;;;;3.60;0.70;;;;;;;20.89;39.24;98927.25;5102908;28;20028;-68
2021/10/15 08:27:43;;;;;;;2.65;0.50;;;;;;;20.98;38.61;98916.97;5102813;28;20064;-68
2021/10/15 08:30:08;;;;;;;4.45;0.60;;;;;;;20.99;36.13;98927.41;5102955;28;20031;-68
2021/10/15 08:32:34;;;;;;;3.78;0.55;;;;;;;20.84;37.76;98933.81;5105131;28;20024;-67
2021/10/15 08:34:59;;;;;;;2.70;0.60;;;;;;;20.73;36.34;98953.09;5106538;28;20081;-67
2021/10/15 08:37:25;;;;;;;2.75;0.60;;;;;;;20.28;35.69;98963.31;5106341;28;20020;-67
2021/10/15 08:39:50;;;;;;;0.88;0.47;;;;;;;19.56;35.35;98963.03;5106525;28;20031;-67
2021/10/15 08:42:16;;;;;;;0.65;0.40;;;;;;;18.74;36.63;98973.75;5106229;28;20084;-66
2021/10/15 08:44:45;;;;;;;2.88;0.60;;;;;;;18.11;36.41;98984.69;5106445;28;20035;-68
2021/10/15 08:47:16;;;;;;;2.78;0.75;;;;;;;17.70;38.13;99003.75;5106404;28;20020;-67
2021/10/15 08:49:43;;;;;;;1.92;0.60;;;;;;;17.50;38.17;99004.97;5106373;28;20038;-68
2021/10/15 08:52:11;;;;;;;1.55;0.47;;;;;;;17.48;38.07;99001.59;5106254;28;20028;-67
2021/10/15 08:54:38;;;;;;;2.30;0.50;;;;;;;17.20;38.57;99029.47;5106228;28;20438;-68
2021/10/15 08:57:04;;;;;;;6.75;0.50;;;;;;;17.21;38.86;99018.88;5106094;28;20028;-67
2021/10/15 08:59:41;;;;;;;1.27;0.60;;;;;;;17.20;39.15;99037.31;5106141;28;20024;-67
2021/10/15 09:02:14;;;;;;;1.85;0.55;;;;;;;17.07;36.59;99043.25;5105971;28;20028;-67
2021/10/15 09:05:09;;;;;;;1.20;0.50;;;;;;;16.76;36.95;99047.59;5106074;28;20028;-66
2021/10/15 09:07:34;;;;;;;1.80;0.70;;;;;;;16.44;36.83;99082.50;5096553;28;20055;-68
2021/10/15 09:10:19;;;;;;;1.33;0.57;;;;;;;16.39;37.85;99079.28;5105937;28;20032;-67
2021/10/15 09:12:47;;;;;;;1.33;0.50;;;;;;;16.80;36.67;99077.97;5105548;28;20020;-71
2021/10/15 09:15:14;;;;;;;1.40;0.50;;;;;;;16.82;34.94;99065.59;5105895;28;20171;-67
2021/10/15 09:17:50;;;;;;;0.30;0.30;;;;;;;16.79;35.02;99089.34;5105677;28;20092;-67
2021/10/15 09:20:27;;;;;;;0.68;0.40;;;;;;;16.50;35.16;99091.81;5105705;28;20058;-67
2021/10/15 09:22:52;;;;;;;1.10;0.50;;;;;;;16.34;34.88;99078.72;5105388;28;20040;-68
2021/10/15 09:25:18;;;;;;;1.33;0.50;;;;;;;16.20;35.03;99119.56;5105873;28;20044;-68
2021/10/15 09:27:45;;;;;;;1.45;0.40;;;;;;;16.54;35.80;99116.91;5105577;28;20137;-68
2021/10/15 09:30:13;;;;;;;0.82;0.47;;;;;;;16.73;33.36;99124.63;5105558;28;20028;-69
2021/10/15 09:32:44;;;;;;;0.88;0.38;;;;;;;16.48;33.18;99136.41;5105566;28;20036;-67
2021/10/15 09:35:12;;;;;;;0.93;0.32;;;;;;;16.33;33.65;99151.19;5105529;28;20030;-67
2021/10/15 09:37:40;;;;;;;0.65;0.47;;;;;;;16.72;33.32;99151.72;5105298;28;20024;-68
2021/10/15 09:40:18;;;;;;;0.93;0.40;;;;;;;16.99;32.83;99150.31;5105356;28;20028;-66
2021/10/15 09:42:49;;;;;;;1.30;1.02;;;;;;;17.38;32.01;99160.47;5105175;28;20049;-65
2021/10/15 09:45:20;;;;;;;0.80;0.60;;;;;;;17.77;31.27;99169.59;5105313;28;20020;-67
2021/10/15 09:47:50;;;;;;;0.45;0.40;;;;;;;17.76;30.85;99177.56;5105097;28;20072;-67
2021/10/15 09:50:18;;;;;;;0.77;0.55;;;;;;;18.27;30.15;99165.84;5104944;28;20538;-67
2021/10/15 09:52:55;;;;;;;1.13;0.43;;;;;;;18.74;28.66;99184.06;5104918;28;20027;-67
2021/10/15 09:55:36;;;;;;;2.25;0.55;;;;;;;18.91;28.61;99186.44;5104866;28;20024;-67
2021/10/15 09:58:19;;;;;;;1.25;0.55;;;;;;;19.40;28.84;99184.28;5105060;28;20020;-67
2021/10/15 10:00:49;;;;;;;2.08;0.40;;;;;;;19.66;27.19;99188.78;5105128;28;20119;-66
2021/10/15 10:03:15;;;;;;;0.82;0.40;;;;;;;19.91;28.22;99208.19;5104718;28;20039;-70
2021/10/15 10:05:41;;;;;;;1.10;0.50;;;;;;;20.63;27.61;99206.88;5104890;28;20020;-67
2021/10/15 10:08:07;;;;;;;3.95;0.47;;;;;;;21.21;27.44;99218.72;5104630;28;20039;-68
2021/10/15 10:10:35;;;;;;;2.45;0.40;;;;;;;21.79;27.21;99222.47;5104715;28;20024;-67
2021/10/15 10:13:01;;;;;;;1.95;0.45;;;;;;;21.56;25.40;99217.09;5104500;28;20024;-68
2021/10/15 10:15:30;;;;;;;0.98;0.40;;;;;;;20.58;25.03;99192.31;5104779;28;20048;-70
2021/10/15 10:18:15;;;;;;;0.50;0.32;;;;;;;19.26;26.61;99226.44;5085943;28;20020;-68
2021/10/15 10:20:47;;;;;;;0.68;0.28;;;;;;;18.43;28.39;99237.56;5120177;28;20034;-68
2021/10/15 10:23:13;;;;;;;;;;;;;;;18.53;29.52;99248.34;5104818;28;20100;-69
2021/10/15 10:25:40;;;;;;;0.75;0.40;;;;;;;19.12;29.23;99237.84;5104681;28;20406;-68
2021/10/15 10:28:12;;;;;;;1.08;0.50;;;;;;;18.99;26.97;99250.88;5104473;28;20032;-68
2021/10/15 10:30:41;;;;;;;0.77;0.40;;;;;;;18.50;28.21;99248.53;5103954;28;20601;-68
2021/10/15 10:33:07;;;;;;;1.00;0.57;;;;;;;17.92;28.61;99251.00;5104072;28;20028;-69
2021/10/15 10:35:33;;;;;;;0.90;0.38;;;;;;;17.78;29.16;99259.69;5104318;28;20422;-68
2021/10/15 10:38:21;;;;;;;1.80;0.68;;;;;;;17.87;29.39;99274.91;5104150;28;20031;-68
2021/10/15 10:41:01;;;;;;;0.65;0.40;;;;;;;17.91;29.52;99275.56;5104303;28;20087;-69
2021/10/15 10:43:31;;;;;;;1.95;0.30;;;;;;;17.87;29.67;99274.06;5103948;28;20475;-69
2021/10/15 10:46:21;;;;;;;0.40;0.30;;;;;;;18.09;29.02;99274.53;5119651;28;20046;-69
2021/10/15 10:48:49;;;;;;;2.10;0.57;;;;;;;18.12;29.21;99291.03;5103944;28;20087;-69
2021/10/15 10:51:20;;;;;;;1.50;0.30;;;;;;;18.53;28.43;99295.63;5103773;28;20035;-69
2021/10/15 10:54:08;;;;;;;0.30;0.30;;;;;;;19.04;27.80;99291.72;5103789;28;20028;-68
2021/10/15 10:56:44;;;;;;;2.80;0.40;;;;;;;19.60;26.69;99278.69;5103809;28;20016;-69
2021/10/15 10:59:18;;;;;;;0.82;0.30;;;;;;;19.48;25.70;99296.09;5103952;28;20020;-70
2021/10/15 11:02:10;;;;;;;2.45;0.40;;;;;;;19.08;25.84;99295.88;5104225;28;20020;-69
2021/10/15 11:04:36;;;;;;;2.45;0.50;;;;;;;18.86;26.71;99306.84;5098037;28;20145;-69
2021/10/15 11:07:09;;;;;;;0.73;0.40;;;;;;;18.78;26.06;99293.31;5103579;28;20052;-69
2021/10/15 11:09:36;;;;;;;5.78;0.55;;;;;;;18.27;25.55;99320.84;5103796;28;20365;-69
2021/10/15 11:12:01;;;;;;;0.82;0.57;;;;;;;17.93;25.82;99276.31;5103760;28;20502;-69
2021/10/15 11:14:51;;;;;;;1.80;0.50;;;;;;;17.20;27.17;99320.53;5103652;28;20028;-67
2021/10/15 11:17:17;;;;;;;2.08;0.40;;;;;;;15.98;28.89;99339.69;5103613;28;20035;-68
2021/10/15 11:19:43;;;;;;;0.25;0.25;;;;;;;14.93;29.38;99318.28;5103672;28;20039;-68
2021/10/15 11:22:11;;;;;;;1.13;0.47;;;;;;;14.19;31.15;99348.31;5103052;28;20035;-67
2021/10/15 11:24:37;;;;;;;1.00;0.43;;;;;;;13.80;31.83;99357.69;5103778;28;20283;-69
2021/10/15 11:27:16;;;;;;;1.23;0.50;;;;;;;13.37;32.60;99361.81;5103691;28;20691;-69
2021/10/15 11:29:54;;;;;;;0.47;0.30;;;;;;;13.00;33.55;99369.19;5103846;28;20024;-68
2021/10/15 11:32:39;;;;;;;0.90;0.50;;;;;;;12.80;34.21;99371.63;5085401;28;20044;-68
2021/10/15 11:35:17;;;;;;;1.17;0.45;;;;;;;12.67;34.17;99372.06;5103743;28;20083;-69
2021/10/15 11:37:45;;;;;;;0.80;0.50;;;;;;;12.63;34.21;99366.13;5103248;28;20103;-68
2021/10/15 11:40:26;;;;;;;2.28;0.60;;;;;;;12.45;34.69;99369.31;5103382;28;20024;-70
2021/10/15 11:43:04;;;;;;;1.43;0.80;;;;;;;12.30;34.88;99381.09;5103287;28;20020;-70
2021/10/15 11:45:33;;;;;;;1.13;0.95;;;;;;;12.20;34.18;99385.75;5103504;28;20024;-70